Time;durP1;ratioP1;P1;durP2;ratioP2;P2;SDS_P1;SDS_P2;PMS_P1;PMS_P2;Temp;Humidity;BMP_temperature;BMP_pressure;BME280_temperature;BME280_humidity;BME280_pressure;Samples;Min_cycle;Max_cycle;Signal;HPM_P1;HPM_P2
2022/05/03 00:01:22;;;;;;;80.13;74.53;;;;;;;14.00;100.00;102063.10;1756678;77;938844;-73
2022/05/03 00:07:10;;;;;;;79.13;73.53;;;;;;;13.92;100.00;102059.47;1811931;78;86318;-71
2022/05/03 00:13:00;;;;;;;79.37;73.77;;;;;;;13.89;100.00;102066.17;1978591;71;86376;-73
2022/05/03 00:18:47;;;;;;;78.03;72.43;;;;;;;13.69;100.00;102064.20;1886331;74;86580;-70
2022/05/03 00:24:34;;;;;;;79.63;74.00;;;;;;;13.46;100.00;102067.48;1865047;76;86735;-71
2022/05/03 00:30:18;;;;;;;81.67;75.83;;;;;;;13.54;100.00;102073.38;1985851;71;39616;-73
2022/05/03 00:36:03;;;;;;;75.90;70.40;;;;;;;13.58;100.00;102068.08;1834756;76;87681;-71
2022/05/03 00:41:51;;;;;;;76.53;71.07;;;;;;;13.51;100.00;102063.32;1808956;78;86065;-71
2022/05/03 00:47:52;;;;;;;77.57;72.17;;;;;;;13.44;100.00;102068.30;1885003;73;86453;-73
2022/05/03 00:57:17;;;;;;;73.83;68.77;;;;;;;13.33;100.00;102062.42;1950267;72;39598;-71
2022/05/03 01:03:15;;;;;;;76.10;70.80;;;;;;;13.30;100.00;102062.98;1847805;76;86419;-73
2022/05/03 01:09:09;;;;;;;75.93;70.57;;;;;;;13.26;100.00;102068.27;1803199;78;86193;-69
2022/05/03 01:15:08;;;;;;;72.67;67.67;;;;;;;13.21;100.00;102066.86;1883515;74;86329;-73
2022/05/03 01:21:08;;;;;;;74.70;69.50;;;;;;;13.20;100.00;102065.17;1844096;76;86100;-70
2022/05/03 01:27:22;;;;;;;71.00;66.10;;;;;;;13.17;100.00;102062.38;1955655;72;86302;-73
2022/05/03 01:33:09;;;;;;;68.97;64.37;;;;;;;13.18;100.00;102068.22;1986351;71;39700;-71
2022/05/03 01:39:01;;;;;;;70.33;65.63;;;;;;;13.17;100.00;102065.17;1848608;76;86359;-71
2022/05/03 01:44:52;;;;;;;70.63;65.93;;;;;;;13.14;100.00;102072.67;1809719;78;86215;-73
2022/05/03 01:50:43;;;;;;;72.03;67.03;;;;;;;13.11;100.00;102070.44;1874077;73;86145;-72
2022/05/03 01:56:39;;;;;;;73.07;67.97;;;;;;;13.04;100.00;102072.61;1902829;75;86409;-73
2022/05/03 02:02:33;;;;;;;71.47;66.83;;;;;;;13.04;100.00;102066.19;1924381;73;87042;-73
2022/05/03 02:08:22;;;;;;;68.53;63.93;;;;;;;12.99;100.00;102065.61;1950116;73;86575;-72
2022/05/03 02:17:16;;;;;;;69.53;64.95;;;;;;;13.03;100.00;102065.90;1899949;73;938966;-73
2022/05/03 02:23:43;;;;;;;70.97;66.20;;;;;;;13.01;100.00;102057.80;1919341;73;86311;-70
2022/05/03 02:29:52;;;;;;;69.53;64.83;;;;;;;12.82;100.00;102062.73;1882270;74;86720;-74
2022/05/03 02:35:44;;;;;;;68.60;63.90;;;;;;;12.73;100.00;102047.91;1871099;75;86118;-70
2022/05/03 02:41:32;;;;;;;67.97;63.50;;;;;;;12.88;100.00;102056.08;1866992;75;86249;-73
2022/05/03 02:50:42;;;;;;;65.80;61.53;;;;;;;12.76;100.00;102055.72;1885149;73;86321;-70
2022/05/03 03:06:25;;;;;;;67.07;62.47;;;;;;;12.70;100.00;102068.53;1926210;71;86308;-71
2022/05/03 03:12:20;;;;;;;68.63;63.90;;;;;;;12.70;100.00;102072.16;1979145;71;39559;-71
2022/05/03 03:18:09;;;;;;;71.30;66.30;;;;;;;12.45;100.00;102069.77;1875350;74;86124;-71
2022/05/03 03:20:44;;;;;;;71.60;66.57;;;;;;;12.61;100.00;102077.11;1829371;76;938857;-72
2022/05/03 03:26:33;;;;;;;75.67;70.43;;;;;;;12.55;100.00;102076.23;1799081;77;86748;-71
2022/05/03 03:32:21;;;;;;;75.87;70.37;;;;;;;12.35;100.00;102076.64;1944258;71;74067;-71
2022/05/03 03:38:08;;;;;;;76.13;70.43;;;;;;;12.39;100.00;102081.41;1941684;71;39749;-71
2022/05/03 03:43:54;;;;;;;79.30;73.50;;;;;;;12.30;100.00;102080.23;1886323;74;86123;-71
2022/05/03 03:49:39;;;;;;;78.33;72.33;;;;;;;12.35;100.00;102076.09;1877038;75;85396;-71
2022/05/03 03:55:26;;;;;;;81.87;75.60;;;;;;;12.45;100.00;102070.57;1936229;73;86101;-71
2022/05/03 04:01:09;;;;;;;81.23;74.93;;;;;;;12.38;100.00;102074.16;1962258;70;39612;-73
2022/05/03 04:06:55;;;;;;;81.73;75.30;;;;;;;12.33;100.00;102080.52;1837188;76;86292;-73
2022/05/03 04:12:40;;;;;;;81.93;75.50;;;;;;;12.16;100.00;102072.02;1881225;75;86326;-70
2022/05/03 04:18:44;;;;;;;79.60;73.00;;;;;;;12.30;100.00;102063.51;1914731;74;86296;-70
2022/05/03 04:24:14;;;;;;;80.10;73.43;;;;;;;12.20;100.00;102076.80;1981408;71;39778;-73
2022/05/03 04:29:58;;;;;;;80.87;73.97;;;;;;;12.16;100.00;102074.81;1956379;71;86238;-71
2022/05/03 04:35:44;;;;;;;82.03;74.93;;;;;;;12.01;100.00;102081.11;1878310;74;86101;-72
2022/05/03 04:41:29;;;;;;;81.63;74.40;;;;;;;12.16;100.00;102078.98;1872629;75;86382;-72
2022/05/03 04:47:13;;;;;;;82.93;75.40;;;;;;;12.06;100.00;102082.55;1922820;71;39681;-73
2022/05/03 04:52:58;;;;;;;83.93;76.40;;;;;;;12.05;100.00;102080.02;1824627;76;86496;-72
2022/05/03 04:58:40;;;;;;;83.90;76.37;;;;;;;12.15;100.00;102092.66;1883135;74;86252;-70
2022/05/03 05:04:25;;;;;;;82.90;75.43;;;;;;;12.19;100.00;102087.65;1913820;74;85940;-71
2022/05/03 05:10:26;;;;;;;85.50;78.10;;;;;;;12.05;100.00;102096.73;1982982;71;39734;-70
2022/05/03 05:16:12;;;;;;;82.63;75.27;;;;;;;12.21;100.00;102102.72;1985894;71;39545;-71
2022/05/03 05:21:57;;;;;;;86.40;78.73;;;;;;;12.23;100.00;102107.48;1849263;76;86120;-72
2022/05/03 05:27:41;;;;;;;86.57;79.20;;;;;;;12.25;100.00;102111.67;1882107;74;86394;-71
2022/05/03 05:33:27;;;;;;;85.93;78.43;;;;;;;12.31;100.00;102121.77;1932809;73;86775;-73
2022/05/03 05:39:12;;;;;;;86.17;78.67;;;;;;;12.21;100.00;102132.81;1985771;71;39731;-72
2022/05/03 05:44:57;;;;;;;83.07;75.10;;;;;;;12.20;100.00;102131.13;1857340;76;85870;-73
2022/05/03 05:50:41;;;;;;;87.60;79.70;;;;;;;12.29;100.00;102135.66;1818541;77;86565;-72
2022/05/03 05:56:25;;;;;;;82.70;75.00;;;;;;;12.38;100.00;102144.37;1938570;72;86691;-67
2022/05/03 06:02:09;;;;;;;86.17;78.47;;;;;;;12.25;100.00;102144.26;1981434;71;39584;-72
2022/05/03 06:07:53;;;;;;;84.60;76.97;;;;;;;12.41;100.00;102146.64;1882776;75;86350;-73
2022/05/03 06:13:38;;;;;;;84.27;76.87;;;;;;;12.39;100.00;102148.84;1889320;75;85539;-72
2022/05/03 06:19:26;;;;;;;83.80;76.60;;;;;;;12.49;100.00;102151.17;1921746;72;86669;-69
2022/05/03 06:25:12;;;;;;;84.57;77.27;;;;;;;12.52;100.00;102155.36;1978948;71;39560;-69
2022/05/03 06:30:56;;;;;;;81.93;74.90;;;;;;;12.51;100.00;102152.28;1835617;76;86481;-70
2022/05/03 06:36:41;;;;;;;83.53;76.57;;;;;;;12.54;100.00;102155.92;1886046;75;86373;-71
2022/05/03 06:42:25;;;;;;;81.07;74.27;;;;;;;12.54;100.00;102158.70;1926280;73;86722;-72
2022/05/03 06:51:16;;;;;;;82.43;76.03;;;;;;;12.66;100.00;102166.36;1979463;69;39585;-71
2022/05/03 06:53:47;;;;;;;84.07;77.30;;;;;;;12.61;100.00;102181.09;1930472;73;936781;-68
2022/05/03 06:59:31;;;;;;;84.40;77.83;;;;;;;12.72;100.00;102168.06;1806692;77;86547;-69
2022/05/03 07:05:16;;;;;;;78.30;71.80;;;;;;;12.71;100.00;102176.13;1980588;71;39653;-68
2022/05/03 07:11:00;;;;;;;77.23;70.63;;;;;;;12.76;100.00;102168.66;1862304;75;86948;-70
2022/05/03 07:16:46;;;;;;;81.63;75.13;;;;;;;12.78;100.00;102177.61;1871927;74;85473;-68
2022/05/03 07:22:46;;;;;;;80.30;73.63;;;;;;;12.84;100.00;102182.64;1806975;77;86230;-70
2022/05/03 07:28:30;;;;;;;80.63;74.50;;;;;;;12.73;100.00;102180.34;1806290;78;86635;-74
2022/05/03 07:34:16;;;;;;;82.53;76.20;;;;;;;12.88;100.00;102180.18;1969667;71;39538;-72
2022/05/03 07:40:00;;;;;;;80.63;74.00;;;;;;;12.82;100.00;102175.66;1887541;74;86719;-74
2022/05/03 07:45:45;;;;;;;85.37;78.60;;;;;;;12.69;100.00;102179.20;1887231;73;86200;-73
2022/05/03 07:51:29;;;;;;;84.73;77.80;;;;;;;12.69;100.00;102176.41;1863260;76;86425;-74
2022/05/03 07:57:33;;;;;;;86.37;79.33;;;;;;;12.70;100.00;102185.63;1918401;72;40471;-68
2022/05/03 08:03:17;;;;;;;85.30;77.83;;;;;;;12.59;100.00;102187.47;1933020;71;40147;-74
2022/05/03 08:09:02;;;;;;;80.90;74.40;;;;;;;12.66;100.00;102190.86;1842745;76;86777;-69
2022/05/03 08:14:47;;;;;;;83.27;76.03;;;;;;;12.78;100.00;102185.97;1867361;74;86737;-69
2022/05/03 08:20:31;;;;;;;80.77;73.97;;;;;;;12.78;100.00;102199.06;1805148;77;86402;-76
2022/05/03 08:26:15;;;;;;;79.73;73.23;;;;;;;12.96;100.00;102200.05;1981832;71;39604;-68
2022/05/03 08:31:51;;;;;;;78.53;72.07;;;;;;;12.78;100.00;102196.28;1762635;78;86367;-67
2022/05/03 08:34:23;;;;;;;77.13;70.97;;;;;;;12.76;100.00;102206.30;1697880;81;937906;-67
2022/05/03 08:42:29;;;;;;;75.17;68.73;;;;;;;12.90;100.00;102211.41;1673027;83;939852;-68
2022/05/03 08:45:01;;;;;;;74.30;68.60;;;;;;;12.78;100.00;102211.06;1663633;80;939964;-68
2022/05/03 08:50:48;;;;;;;76.17;70.17;;;;;;;13.03;100.00;102205.38;1887975;74;86636;-70
2022/05/03 08:56:34;;;;;;;81.13;74.83;;;;;;;13.21;100.00;102203.58;1902444;75;86340;-70
2022/05/03 09:02:17;;;;;;;78.97;72.77;;;;;;;13.01;100.00;102211.21;1985791;71;39467;-71
2022/05/03 09:08:04;;;;;;;76.17;70.13;;;;;;;13.11;100.00;102211.33;1827345;76;86524;-70
2022/05/03 09:13:50;;;;;;;75.80;69.73;;;;;;;13.10;100.00;102214.34;1795685;78;86286;-72
2022/05/03 09:19:35;;;;;;;83.10;76.70;;;;;;;13.19;100.00;102215.55;1871638;75;86362;-70
2022/05/03 09:25:20;;;;;;;84.13;77.27;;;;;;;13.01;100.00;102217.34;1816133;78;86183;-73
2022/05/03 09:31:05;;;;;;;75.20;69.23;;;;;;;13.17;100.00;102218.62;1812655;78;86418;-73
2022/05/03 09:36:53;;;;;;;77.70;71.47;;;;;;;13.08;100.00;102222.16;1882642;74;86602;-69
2022/05/03 09:42:40;;;;;;;74.27;68.40;;;;;;;13.02;100.00;102215.69;1884916;74;85883;-70
2022/05/03 09:48:27;;;;;;;80.17;73.70;;;;;;;13.15;100.00;102215.25;1912447;74;86298;-68
2022/05/03 09:54:12;;;;;;;78.93;72.40;;;;;;;13.35;100.00;102213.71;1987338;71;39619;-70
2022/05/03 09:59:56;;;;;;;78.23;72.03;;;;;;;13.33;100.00;102217.31;1843995;76;85321;-72
2022/05/03 10:05:42;;;;;;;78.53;72.37;;;;;;;13.29;100.00;102219.81;1884765;74;86300;-69
2022/05/03 10:11:29;;;;;;;77.47;71.40;;;;;;;13.52;100.00;102209.59;1914143;73;85478;-72
2022/05/03 10:23:28;;;;;;;75.13;69.17;;;;;;;13.74;100.00;102204.38;1949714;72;85622;-72
2022/05/03 10:29:14;;;;;;;74.87;68.97;;;;;;;13.81;100.00;102210.56;1933314;71;39605;-70
2022/05/03 10:35:36;;;;;;;82.20;75.43;;;;;;;13.98;100.00;102209.78;1985763;71;40446;-72
2022/05/03 10:41:25;;;;;;;80.93;74.27;;;;;;;13.83;100.00;102202.18;1923553;73;86508;-73
2022/05/03 10:47:10;;;;;;;85.00;78.40;;;;;;;13.62;100.00;102204.06;1948403;71;39645;-68
2022/05/03 10:53:36;;;;;;;83.47;76.67;;;;;;;13.80;100.00;102206.09;1808383;77;85545;-67
2022/05/03 10:59:22;;;;;;;82.30;75.83;;;;;;;13.44;100.00;102208.72;1915367;74;86264;-68
2022/05/03 11:05:23;;;;;;;82.53;75.97;;;;;;;13.51;100.00;102202.91;1913431;74;86360;-67
2022/05/03 11:11:54;;;;;;;85.30;78.30;;;;;;;13.89;100.00;102198.30;1808484;77;86203;-72
2022/05/03 11:18:07;;;;;;;80.50;74.17;;;;;;;14.20;100.00;102184.41;1802752;77;85503;-69
2022/05/03 11:23:56;;;;;;;83.37;76.77;;;;;;;14.12;100.00;102179.63;1890029;74;86381;-69
2022/05/03 11:29:43;;;;;;;74.67;68.87;;;;;;;14.45;100.00;102169.09;1831556;76;85462;-67
2022/05/03 11:35:29;;;;;;;75.40;69.77;;;;;;;14.46;100.00;102168.79;1910797;72;86281;-73
2022/05/03 11:41:14;;;;;;;74.33;68.70;;;;;;;14.22;100.00;102162.04;1978588;71;39689;-67
2022/05/03 11:47:03;;;;;;;72.17;66.77;;;;;;;14.77;100.00;102156.19;1976056;72;85994;-73
2022/05/03 11:58:48;;;;;;;70.23;65.00;;;;;;;14.74;100.00;102160.41;1802006;78;86627;-69
2022/05/03 12:04:33;;;;;;;66.80;61.93;;;;;;;14.84;100.00;102155.36;1806510;77;86575;-73
2022/05/03 12:10:19;;;;;;;69.00;64.00;;;;;;;14.98;100.00;102149.44;1944562;71;39723;-73
2022/05/03 12:16:24;;;;;;;67.73;62.73;;;;;;;15.09;100.00;102156.70;1931422;71;39451;-68
2022/05/03 12:22:15;;;;;;;65.53;60.80;;;;;;;15.12;100.00;102153.33;1986010;71;39591;-68
2022/05/03 12:28:06;;;;;;;70.57;65.60;;;;;;;15.51;100.00;102142.87;1848743;76;86698;-70
2022/05/03 12:33:55;;;;;;;64.93;60.23;;;;;;;15.56;100.00;102134.45;1884737;74;85414;-68
2022/05/03 12:39:53;;;;;;;60.17;55.83;;;;;;;15.68;100.00;102134.94;1881871;74;86864;-68
2022/05/03 12:45:37;;;;;;;60.10;55.80;;;;;;;15.71;100.00;102128.19;1802060;78;85701;-68
2022/05/03 12:51:20;;;;;;;57.77;53.73;;;;;;;15.98;100.00;102124.11;1948818;73;86059;-68
2022/05/03 13:00:21;;;;;;;57.93;54.00;;;;;;;16.11;100.00;102124.30;1870498;73;86336;-72
2022/05/03 13:06:06;;;;;;;56.10;52.20;;;;;;;15.96;100.00;102120.19;1800939;77;84945;-69
2022/05/03 13:11:52;;;;;;;54.63;50.93;;;;;;;16.06;100.00;102112.28;1809404;78;85716;-68
2022/05/03 13:17:37;;;;;;;53.97;50.30;;;;;;;16.26;100.00;102112.95;1886275;74;86377;-67
2022/05/03 13:23:25;;;;;;;51.93;48.33;;;;;;;16.24;100.00;102108.78;1913823;74;86807;-67
2022/05/03 13:29:12;;;;;;;52.40;49.00;;;;;;;16.86;100.00;102094.49;1984487;71;39568;-72
2022/05/03 13:34:57;;;;;;;51.40;48.07;;;;;;;16.88;100.00;102100.63;1836010;76;86328;-69
2022/05/03 13:40:43;;;;;;;48.73;45.30;;;;;;;16.86;100.00;102095.30;1886400;73;85181;-71
2022/05/03 13:46:30;;;;;;;46.30;43.50;;;;;;;16.74;100.00;102088.70;1939318;73;86354;-68
2022/05/03 13:52:15;;;;;;;47.80;44.70;;;;;;;16.92;100.00;102084.87;1983011;71;39567;-66
2022/05/03 13:57:57;;;;;;;45.87;42.97;;;;;;;16.99;100.00;102076.91;1851295;76;86529;-72
2022/05/03 14:03:40;;;;;;;44.43;41.47;;;;;;;16.70;100.00;102070.79;1899498;73;86471;-71
2022/05/03 14:09:24;;;;;;;44.70;41.67;;;;;;;17.15;100.00;102061.58;1909646;73;86116;-72
2022/05/03 14:15:10;;;;;;;44.83;41.80;;;;;;;17.01;100.00;102062.02;1987392;71;39545;-71
2022/05/03 14:20:55;;;;;;;42.67;39.87;;;;;;;17.04;100.00;102052.44;1849365;76;86325;-71
2022/05/03 14:26:39;;;;;;;44.23;41.33;;;;;;;17.27;100.00;102050.18;1886349;75;86059;-69
2022/05/03 14:32:23;;;;;;;40.73;38.00;;;;;;;17.18;100.00;102049.73;1911092;73;86479;-68
2022/05/03 14:34:56;;;;;;;40.63;37.73;;;;;;;17.06;100.00;102048.77;1821483;75;936894;-70
2022/05/03 14:40:40;;;;;;;44.77;41.70;;;;;;;16.87;100.00;102046.47;1891756;75;86477;-68
2022/05/03 14:46:24;;;;;;;42.80;40.10;;;;;;;16.91;100.00;102046.70;1932735;71;86107;-73
2022/05/03 14:52:13;;;;;;;39.03;36.63;;;;;;;16.97;100.00;102053.94;1975390;71;39637;-73
2022/05/03 15:03:58;;;;;;;39.00;36.40;;;;;;;17.31;100.00;102027.94;1854331;76;86385;-73
2022/05/03 15:09:42;;;;;;;40.80;38.00;;;;;;;17.49;100.00;102033.31;1882282;73;86496;-72
2022/05/03 15:15:30;;;;;;;40.10;37.50;;;;;;;17.26;100.00;102023.80;1902101;72;86427;-67
2022/05/03 15:21:15;;;;;;;38.30;35.70;;;;;;;17.48;100.00;102015.62;1981656;70;39666;-73
2022/05/03 15:26:59;;;;;;;38.50;35.90;;;;;;;17.46;100.00;102008.61;1841618;76;86257;-74
2022/05/03 15:32:43;;;;;;;39.93;37.13;;;;;;;17.21;100.00;102012.63;1903520;73;86669;-73
2022/05/03 15:38:27;;;;;;;40.10;37.33;;;;;;;17.22;100.00;102012.33;1916345;72;85447;-66
2022/05/03 15:44:12;;;;;;;39.27;36.77;;;;;;;17.28;100.00;102006.09;1984191;71;39634;-67
2022/05/03 15:49:57;;;;;;;36.70;34.33;;;;;;;17.32;100.00;102010.52;1830851;75;86571;-71
2022/05/03 15:55:43;;;;;;;40.17;37.67;;;;;;;17.23;100.00;102003.34;1890584;74;86552;-67
2022/05/03 16:01:28;;;;;;;37.53;35.13;;;;;;;17.23;100.00;102002.78;1913107;72;86603;-66
2022/05/03 16:07:16;;;;;;;40.23;37.70;;;;;;;17.16;100.00;102005.10;1913512;74;39693;-72
2022/05/03 16:13:03;;;;;;;38.27;35.87;;;;;;;17.17;100.00;102002.56;1889905;75;85639;-72
2022/05/03 16:18:46;;;;;;;39.50;37.10;;;;;;;17.17;100.00;101996.95;1884209;73;86389;-72
2022/05/03 16:24:31;;;;;;;40.43;37.93;;;;;;;17.08;100.00;101994.55;1867014;74;85991;-68
2022/05/03 16:30:15;;;;;;;38.47;35.97;;;;;;;17.00;100.00;101992.41;1980422;71;39664;-69
2022/05/03 16:42:08;;;;;;;39.63;37.20;;;;;;;17.05;100.00;101988.70;1859716;76;86438;-73
2022/05/03 16:47:49;;;;;;;35.60;33.40;;;;;;;17.01;100.00;101983.42;1804422;78;86517;-71
2022/05/03 16:53:39;;;;;;;42.63;40.03;;;;;;;16.99;100.00;101977.27;1874745;75;86463;-72
2022/05/03 16:59:21;;;;;;;37.00;34.70;;;;;;;17.00;100.00;101970.52;1908458;72;86068;-67
2022/05/03 17:01:54;;;;;;;37.83;35.53;;;;;;;17.02;100.00;101977.52;1883139;74;936698;-68
2022/05/03 17:07:38;;;;;;;38.60;36.10;;;;;;;17.05;100.00;101971.30;1888274;75;86454;-81
2022/05/03 17:13:27;;;;;;;38.23;35.67;;;;;;;17.07;100.00;101962.58;1912857;74;86752;-80
2022/05/03 17:19:16;;;;;;;39.10;36.70;;;;;;;16.97;100.00;101959.34;1985810;71;39621;-82
2022/05/03 17:25:00;;;;;;;40.00;37.37;;;;;;;16.84;100.00;101965.69;1826691;76;86258;-79
2022/05/03 17:30:46;;;;;;;42.67;39.77;;;;;;;16.87;100.00;101967.04;1882661;73;85395;-81
2022/05/03 17:36:34;;;;;;;41.90;39.03;;;;;;;16.73;100.00;101966.92;1920162;73;86104;-82
2022/05/03 17:42:18;;;;;;;42.93;40.03;;;;;;;16.58;100.00;101969.93;1980491;71;39538;-84
2022/05/03 17:48:02;;;;;;;44.27;41.37;;;;;;;16.34;100.00;101969.30;1841302;76;86112;-72
2022/05/03 17:53:54;;;;;;;43.53;40.83;;;;;;;16.34;100.00;101972.70;1834491;76;86382;-76
2022/05/03 17:59:39;;;;;;;42.50;39.70;;;;;;;16.32;100.00;101974.95;1821525;77;86830;-77
2022/05/03 18:05:25;;;;;;;43.70;40.70;;;;;;;16.28;100.00;101978.92;1913554;74;86230;-72
2022/05/03 18:11:12;;;;;;;43.67;40.77;;;;;;;16.21;100.00;101980.41;1930804;71;39589;-74
2022/05/03 18:16:57;;;;;;;44.23;40.97;;;;;;;16.19;100.00;101979.29;1849218;76;85345;-77
2022/05/03 18:22:33;;;;;;;43.60;40.73;;;;;;;16.45;100.00;101977.62;1888742;73;86365;-77
2022/05/03 18:28:20;;;;;;;45.53;42.50;;;;;;;16.20;100.00;101980.97;1836838;76;86225;-76
2022/05/03 18:34:06;;;;;;;47.43;44.23;;;;;;;16.08;100.00;101974.09;1802547;78;86336;-81
2022/05/03 18:39:50;;;;;;;47.73;44.43;;;;;;;15.84;100.00;101979.61;1796126;78;85634;-79
2022/05/03 18:45:34;;;;;;;45.60;42.43;;;;;;;15.79;100.00;101980.48;1805832;77;86456;-78
2022/05/03 18:51:19;;;;;;;48.20;44.80;;;;;;;15.72;100.00;101979.16;1980715;71;39559;-84
2022/05/03 18:57:05;;;;;;;50.97;47.30;;;;;;;15.68;100.00;101982.27;1813970;78;86321;-78
2022/05/03 19:02:49;;;;;;;49.50;46.00;;;;;;;15.57;100.00;101993.28;1809061;78;86174;-83
2022/05/03 19:08:34;;;;;;;49.27;45.90;;;;;;;15.44;100.00;101983.55;1799400;77;85318;-85
2022/05/03 19:14:19;;;;;;;53.27;49.53;;;;;;;15.45;100.00;101992.20;1978089;71;39560;-78
2022/05/03 19:20:05;;;;;;;55.53;51.70;;;;;;;15.42;100.00;101995.59;1830422;76;86067;-80
2022/05/03 19:31:53;;;;;;;57.77;53.80;;;;;;;15.29;100.00;101989.22;1882363;74;86550;-79
2022/05/03 19:37:37;;;;;;;59.07;55.03;;;;;;;15.10;100.00;101996.63;1891602;73;86348;-77
2022/05/03 19:43:24;;;;;;;62.23;57.80;;;;;;;15.06;100.00;101999.72;1914745;74;86602;-73
2022/05/03 19:49:11;;;;;;;64.17;59.67;;;;;;;14.90;100.00;102004.53;1978862;71;39582;-74
2022/05/03 19:54:59;;;;;;;64.33;59.97;;;;;;;14.71;100.00;102012.73;1836461;75;85582;-75
2022/05/03 20:00:44;;;;;;;64.93;60.47;;;;;;;14.69;100.00;102018.31;1872385;74;85392;-73
2022/05/03 20:06:28;;;;;;;69.10;64.40;;;;;;;14.53;100.00;102030.95;1888492;74;85771;-74
2022/05/03 20:12:18;;;;;;;69.20;64.50;;;;;;;14.53;100.00;102029.55;1985994;71;39714;-75
2022/05/03 20:18:02;;;;;;;67.00;62.40;;;;;;;14.58;100.00;102032.91;1844505;76;86356;-75
2022/05/03 20:23:48;;;;;;;67.43;62.73;;;;;;;14.74;100.00;102030.34;1871316;74;85407;-74
2022/05/03 20:29:32;;;;;;;70.30;65.60;;;;;;;14.38;100.00;102023.14;1808108;77;86359;-73
2022/05/03 20:35:16;;;;;;;69.83;64.93;;;;;;;14.44;100.00;102023.42;1975635;71;39575;-76
2022/05/03 20:41:00;;;;;;;69.20;64.30;;;;;;;14.43;100.00;102023.13;1832741;75;85917;-75
2022/05/03 20:52:45;;;;;;;71.67;66.70;;;;;;;14.15;100.00;102002.20;1903516;74;86629;-77
2022/05/03 20:58:31;;;;;;;70.90;65.90;;;;;;;14.25;100.00;102014.74;1869603;75;85441;-75
2022/05/03 21:04:18;;;;;;;72.40;67.33;;;;;;;14.11;100.00;102028.47;1922010;70;39744;-82
2022/05/03 21:10:03;;;;;;;73.67;68.33;;;;;;;14.19;100.00;102027.06;1827840;76;85308;-77
2022/05/03 21:15:48;;;;;;;79.33;73.60;;;;;;;14.14;100.00;102032.09;1828724;77;86569;-82
2022/05/03 21:21:33;;;;;;;80.63;74.77;;;;;;;14.09;100.00;102033.48;1858803;76;86596;-77
2022/05/03 21:27:20;;;;;;;81.73;75.50;;;;;;;14.10;100.00;102032.94;1984993;71;39714;-74
2022/05/03 21:33:05;;;;;;;80.57;74.47;;;;;;;14.07;100.00;102030.71;1826645;76;86539;-80
2022/05/03 21:38:49;;;;;;;79.67;73.80;;;;;;;14.05;100.00;102036.56;1808184;78;86284;-83
2022/05/03 21:44:36;;;;;;;83.73;77.53;;;;;;;13.95;100.00;102042.70;1870292;75;85885;-81
2022/05/03 21:50:21;;;;;;;81.80;75.60;;;;;;;13.89;100.00;102045.22;1925058;73;86180;-76
2022/05/03 21:56:06;;;;;;;82.33;76.23;;;;;;;13.56;100.00;102039.02;1813526;78;86080;-75
2022/05/03 22:01:49;;;;;;;83.20;76.87;;;;;;;13.57;100.00;102051.88;1811109;78;86351;-76
2022/05/03 22:07:35;;;;;;;82.57;76.27;;;;;;;13.48;100.00;102050.73;1954559;72;85551;-77
2022/05/03 22:13:25;;;;;;;86.23;79.73;;;;;;;13.45;100.00;102047.11;1906438;72;86378;-77
2022/05/03 22:19:09;;;;;;;84.10;77.53;;;;;;;13.34;100.00;102051.55;1986558;71;39854;-76
2022/05/03 22:24:54;;;;;;;85.00;78.53;;;;;;;13.29;100.00;102043.16;1847601;75;86585;-79
2022/05/03 22:30:41;;;;;;;83.73;77.60;;;;;;;13.45;100.00;102031.75;1872786;76;86426;-77
2022/05/03 22:36:25;;;;;;;83.50;76.93;;;;;;;13.25;100.00;102037.29;1928045;73;85698;-77
2022/05/03 22:42:11;;;;;;;86.13;79.47;;;;;;;13.13;100.00;102029.17;1986379;71;39616;-82
2022/05/03 22:47:55;;;;;;;85.90;79.30;;;;;;;13.16;100.00;102027.77;1840752;76;85863;-75
2022/05/03 22:53:39;;;;;;;84.97;78.30;;;;;;;13.14;100.00;102024.39;1871955;75;86091;-81
2022/05/03 22:59:22;;;;;;;86.77;79.87;;;;;;;13.04;100.00;102023.80;1938606;72;86662;-79
2022/05/03 23:05:08;;;;;;;86.90;80.27;;;;;;;13.04;100.00;102031.33;1813596;78;86647;-76
2022/05/03 23:10:53;;;;;;;86.70;79.87;;;;;;;13.10;100.00;102033.00;1888026;74;85394;-76
2022/05/03 23:16:37;;;;;;;89.97;82.57;;;;;;;13.06;100.00;102025.73;1813986;79;86200;-75
2022/05/03 23:22:22;;;;;;;90.73;83.63;;;;;;;13.08;100.00;102031.06;1936140;73;86383;-75
2022/05/03 23:28:07;;;;;;;87.77;80.57;;;;;;;13.03;100.00;102024.06;1810911;78;85749;-77
2022/05/03 23:33:51;;;;;;;93.13;85.77;;;;;;;12.92;100.00;102016.78;1881563;75;85431;-76
2022/05/03 23:39:36;;;;;;;90.87;83.47;;;;;;;12.85;100.00;102007.80;1806138;77;86617;-76
2022/05/03 23:51:27;;;;;;;91.43;83.73;;;;;;;12.93;100.00;102005.88;1909952;72;86541;-83
2022/05/03 23:57:11;;;;;;;91.27;83.73;;;;;;;12.74;100.00;102004.98;1978554;71;40144;-76
